sensor_id;sensor_type;location;lat;lon;timestamp;temperature;humidity
16160;DHT22;8185;57.818;15.224;2022-07-29T06:13:48;15.40;99.90
16160;DHT22;8185;57.818;15.224;2022-07-29T06:16:15;16.00;99.90
16160;DHT22;8185;57.818;15.224;2022-07-29T06:18:43;16.30;99.90
16160;DHT22;8185;57.818;15.224;2022-07-29T06:21:10;16.50;99.90
16160;DHT22;8185;57.818;15.224;2022-07-29T06:23:38;16.70;99.90
16160;DHT22;8185;57.818;15.224;2022-07-29T06:26:06;16.80;99.90
16160;DHT22;8185;57.818;15.224;2022-07-29T06:28:33;17.00;99.90
16160;DHT22;8185;57.818;15.224;2022-07-29T06:31:02;17.10;99.90
16160;DHT22;8185;57.818;15.224;2022-07-29T06:33:29;17.30;99.90
16160;DHT22;8185;57.818;15.224;2022-07-29T06:35:56;17.40;99.90
16160;DHT22;8185;57.818;15.224;2022-07-29T06:38:24;17.70;99.90
16160;DHT22;8185;57.818;15.224;2022-07-29T06:40:51;17.90;99.90
16160;DHT22;8185;57.818;15.224;2022-07-29T06:43:29;18.00;99.90
16160;DHT22;8185;57.818;15.224;2022-07-29T06:45:59;18.10;99.90
16160;DHT22;8185;57.818;15.224;2022-07-29T06:48:28;18.00;99.90
16160;DHT22;8185;57.818;15.224;2022-07-29T06:50:56;18.10;99.90
16160;DHT22;8185;57.818;15.224;2022-07-29T06:53:23;18.00;99.90
16160;DHT22;8185;57.818;15.224;2022-07-29T06:55:51;18.20;99.90
16160;DHT22;8185;57.818;15.224;2022-07-29T06:58:18;18.30;99.90
16160;DHT22;8185;57.818;15.224;2022-07-29T07:00:47;18.40;99.90
16160;DHT22;8185;57.818;15.224;2022-07-29T07:03:15;18.80;99.90
16160;DHT22;8185;57.818;15.224;2022-07-29T07:05:44;19.00;99.90
16160;DHT22;8185;57.818;15.224;2022-07-29T07:08:13;19.10;99.90
16160;DHT22;8185;57.818;15.224;2022-07-29T07:10:42;19.20;99.90
16160;DHT22;8185;57.818;15.224;2022-07-29T07:13:09;19.30;99.90
16160;DHT22;8185;57.818;15.224;2022-07-29T07:15:37;19.50;99.90
16160;DHT22;8185;57.818;15.224;2022-07-29T07:18:05;19.60;99.90
16160;DHT22;8185;57.818;15.224;2022-07-29T07:20:33;19.60;99.90
16160;DHT22;8185;57.818;15.224;2022-07-29T07:23:02;19.80;99.90
16160;DHT22;8185;57.818;15.224;2022-07-29T07:25:30;19.90;99.90
16160;DHT22;8185;57.818;15.224;2022-07-29T07:27:58;20.10;99.90
16160;DHT22;8185;57.818;15.224;2022-07-29T07:30:25;19.90;99.90
16160;DHT22;8185;57.818;15.224;2022-07-29T07:32:53;20.00;99.90
16160;DHT22;8185;57.818;15.224;2022-07-29T07:35:21;20.10;99.90
16160;DHT22;8185;57.818;15.224;2022-07-29T07:37:48;20.20;99.90
16160;DHT22;8185;57.818;15.224;2022-07-29T07:40:17;20.50;99.90
16160;DHT22;8185;57.818;15.224;2022-07-29T07:42:44;20.50;97.70
16160;DHT22;8185;57.818;15.224;2022-07-29T07:45:12;20.50;98.40
16160;DHT22;8185;57.818;15.224;2022-07-29T07:47:39;20.60;97.90
16160;DHT22;8185;57.818;15.224;2022-07-29T07:50:09;20.80;97.50
16160;DHT22;8185;57.818;15.224;2022-07-29T07:52:46;20.90;96.10
16160;DHT22;8185;57.818;15.224;2022-07-29T07:55:13;20.90;95.20
16160;DHT22;8185;57.818;15.224;2022-07-29T07:57:42;20.90;96.30
16160;DHT22;8185;57.818;15.224;2022-07-29T08:00:11;21.10;94.50
16160;DHT22;8185;57.818;15.224;2022-07-29T08:02:39;21.30;94.60
16160;DHT22;8185;57.818;15.224;2022-07-29T08:05:08;20.90;93.30
16160;DHT22;8185;57.818;15.224;2022-07-29T08:07:37;20.70;93.70
16160;DHT22;8185;57.818;15.224;2022-07-29T08:10:05;20.70;94.10
16160;DHT22;8185;57.818;15.224;2022-07-29T08:12:32;20.70;94.50
16160;DHT22;8185;57.818;15.224;2022-07-29T08:15:01;20.70;93.40
16160;DHT22;8185;57.818;15.224;2022-07-29T08:17:28;20.60;92.90
16160;DHT22;8185;57.818;15.224;2022-07-29T08:19:55;20.80;92.50
16160;DHT22;8185;57.818;15.224;2022-07-29T08:22:23;21.10;92.60
16160;DHT22;8185;57.818;15.224;2022-07-29T08:24:51;21.20;93.50
16160;DHT22;8185;57.818;15.224;2022-07-29T08:27:22;21.10;93.00
16160;DHT22;8185;57.818;15.224;2022-07-29T08:29:49;21.30;92.00
16160;DHT22;8185;57.818;15.224;2022-07-29T08:32:18;21.10;93.30
16160;DHT22;8185;57.818;15.224;2022-07-29T08:34:45;20.80;91.90
16160;DHT22;8185;57.818;15.224;2022-07-29T08:37:12;20.80;93.30
16160;DHT22;8185;57.818;15.224;2022-07-29T08:39:40;20.80;92.30
16160;DHT22;8185;57.818;15.224;2022-07-29T08:42:07;20.90;91.30
16160;DHT22;8185;57.818;15.224;2022-07-29T08:44:36;21.10;92.10
16160;DHT22;8185;57.818;15.224;2022-07-29T08:47:04;20.90;91.70
16160;DHT22;8185;57.818;15.224;2022-07-29T08:49:35;20.40;92.70
16160;DHT22;8185;57.818;15.224;2022-07-29T08:52:02;19.20;92.00
16160;DHT22;8185;57.818;15.224;2022-07-29T08:54:30;19.80;93.00
16160;DHT22;8185;57.818;15.224;2022-07-29T08:56:58;20.20;93.50
16160;DHT22;8185;57.818;15.224;2022-07-29T08:59:28;20.60;91.30
16160;DHT22;8185;57.818;15.224;2022-07-29T09:01:57;20.90;90.30
16160;DHT22;8185;57.818;15.224;2022-07-29T09:04:29;21.10;89.50
16160;DHT22;8185;57.818;15.224;2022-07-29T09:07:01;21.50;88.60
16160;DHT22;8185;57.818;15.224;2022-07-29T09:09:30;21.60;86.70
16160;DHT22;8185;57.818;15.224;2022-07-29T09:12:01;21.70;86.10
16160;DHT22;8185;57.818;15.224;2022-07-29T09:14:29;21.80;85.70
16160;DHT22;8185;57.818;15.224;2022-07-29T09:16:57;22.10;85.00
16160;DHT22;8185;57.818;15.224;2022-07-29T09:19:26;22.00;85.80
16160;DHT22;8185;57.818;15.224;2022-07-29T09:21:56;22.40;84.20
16160;DHT22;8185;57.818;15.224;2022-07-29T09:24:37;22.90;85.50
16160;DHT22;8185;57.818;15.224;2022-07-29T09:27:10;23.00;86.30
16160;DHT22;8185;57.818;15.224;2022-07-29T09:29:38;23.00;82.00
16160;DHT22;8185;57.818;15.224;2022-07-29T09:32:09;23.20;82.70
16160;DHT22;8185;57.818;15.224;2022-07-29T09:34:37;23.80;82.00
16160;DHT22;8185;57.818;15.224;2022-07-29T09:37:05;24.10;81.70
16160;DHT22;8185;57.818;15.224;2022-07-29T09:39:36;24.70;75.60
16160;DHT22;8185;57.818;15.224;2022-07-29T09:42:10;24.20;72.70
16160;DHT22;8185;57.818;15.224;2022-07-29T09:44:42;23.30;77.80
16160;DHT22;8185;57.818;15.224;2022-07-29T09:47:10;23.10;81.70
16160;DHT22;8185;57.818;15.224;2022-07-29T09:49:51;22.90;80.00
16160;DHT22;8185;57.818;15.224;2022-07-29T09:54:49;22.00;83.50
16160;DHT22;8185;57.818;15.224;2022-07-29T09:57:25;21.60;82.90
16160;DHT22;8185;57.818;15.224;2022-07-29T09:59:57;21.50;83.40
16160;DHT22;8185;57.818;15.224;2022-07-29T10:02:28;21.40;85.60
16160;DHT22;8185;57.818;15.224;2022-07-29T10:04:57;21.10;87.30
16160;DHT22;8185;57.818;15.224;2022-07-29T10:07:25;21.00;86.30
16160;DHT22;8185;57.818;15.224;2022-07-29T10:12:24;20.80;87.90
16160;DHT22;8185;57.818;15.224;2022-07-29T10:14:51;20.80;89.90
16160;DHT22;8185;57.818;15.224;2022-07-29T10:17:18;20.90;90.60
16160;DHT22;8185;57.818;15.224;2022-07-29T10:19:46;21.00;89.80
16160;DHT22;8185;57.818;15.224;2022-07-29T10:22:14;21.20;89.50
16160;DHT22;8185;57.818;15.224;2022-07-29T10:24:42;21.20;88.80
16160;DHT22;8185;57.818;15.224;2022-07-29T10:27:09;21.40;89.40
16160;DHT22;8185;57.818;15.224;2022-07-29T10:29:38;21.60;86.70
16160;DHT22;8185;57.818;15.224;2022-07-29T10:32:25;22.00;85.60
16160;DHT22;8185;57.818;15.224;2022-07-29T10:35:15;22.50;79.30
16160;DHT22;8185;57.818;15.224;2022-07-29T10:40:52;23.60;77.60
16160;DHT22;8185;57.818;15.224;2022-07-29T10:43:43;24.40;76.60
16160;DHT22;8185;57.818;15.224;2022-07-29T10:46:13;25.50;73.00
16160;DHT22;8185;57.818;15.224;2022-07-29T10:49:07;26.00;70.10
16160;DHT22;8185;57.818;15.224;2022-07-29T10:51:53;27.00;67.80
16160;DHT22;8185;57.818;15.224;2022-07-29T10:54:47;27.60;67.60
16160;DHT22;8185;57.818;15.224;2022-07-29T10:57:24;26.80;66.10
16160;DHT22;8185;57.818;15.224;2022-07-29T11:00:30;27.30;64.10
16160;DHT22;8185;57.818;15.224;2022-07-29T11:02:59;27.70;62.20
16160;DHT22;8185;57.818;15.224;2022-07-29T11:05:26;27.30;64.70
16160;DHT22;8185;57.818;15.224;2022-07-29T11:08:21;26.80;64.80
16160;DHT22;8185;57.818;15.224;2022-07-29T11:10:53;27.10;62.50
16160;DHT22;8185;57.818;15.224;2022-07-29T11:13:50;26.80;62.50
16160;DHT22;8185;57.818;15.224;2022-07-29T11:16:21;27.90;61.30
16160;DHT22;8185;57.818;15.224;2022-07-29T11:21:36;27.10;60.60
16160;DHT22;8185;57.818;15.224;2022-07-29T11:24:12;27.70;58.90
16160;DHT22;8185;57.818;15.224;2022-07-29T11:26:40;27.80;58.30
16160;DHT22;8185;57.818;15.224;2022-07-29T11:29:18;27.50;60.90
16160;DHT22;8185;57.818;15.224;2022-07-29T11:31:48;28.40;58.00
16160;DHT22;8185;57.818;15.224;2022-07-29T11:34:24;28.10;57.60
16160;DHT22;8185;57.818;15.224;2022-07-29T11:37:17;27.50;58.40
16160;DHT22;8185;57.818;15.224;2022-07-29T11:39:45;25.80;60.20
16160;DHT22;8185;57.818;15.224;2022-07-29T11:45:25;23.80;64.60
16160;DHT22;8185;57.818;15.224;2022-07-29T11:47:58;23.40;68.10
16160;DHT22;8185;57.818;15.224;2022-07-29T11:50:34;23.00;69.10
16160;DHT22;8185;57.818;15.224;2022-07-29T11:53:10;23.80;73.60
16160;DHT22;8185;57.818;15.224;2022-07-29T11:55:39;25.70;73.20
16160;DHT22;8185;57.818;15.224;2022-07-29T11:58:07;26.40;66.50
16160;DHT22;8185;57.818;15.224;2022-07-29T12:00:36;27.30;63.00
16160;DHT22;8185;57.818;15.224;2022-07-29T12:03:05;28.10;61.90
16160;DHT22;8185;57.818;15.224;2022-07-29T12:05:36;28.60;60.90
16160;DHT22;8185;57.818;15.224;2022-07-29T12:08:14;28.00;58.80
16160;DHT22;8185;57.818;15.224;2022-07-29T12:10:42;27.90;59.10
16160;DHT22;8185;57.818;15.224;2022-07-29T12:13:10;28.00;59.40
16160;DHT22;8185;57.818;15.224;2022-07-29T12:15:38;28.70;61.20
16160;DHT22;8185;57.818;15.224;2022-07-29T12:18:13;29.40;55.10
16160;DHT22;8185;57.818;15.224;2022-07-29T12:20:41;28.90;59.00
16160;DHT22;8185;57.818;15.224;2022-07-29T12:23:09;28.90;58.70
16160;DHT22;8185;57.818;15.224;2022-07-29T12:25:40;28.90;57.50
16160;DHT22;8185;57.818;15.224;2022-07-29T12:28:11;29.70;56.90
16160;DHT22;8185;57.818;15.224;2022-07-29T12:30:44;29.30;54.50
16160;DHT22;8185;57.818;15.224;2022-07-29T12:33:22;28.80;58.20
16160;DHT22;8185;57.818;15.224;2022-07-29T12:35:52;28.60;59.00
16160;DHT22;8185;57.818;15.224;2022-07-29T12:38:21;28.60;56.80
16160;DHT22;8185;57.818;15.224;2022-07-29T12:40:51;29.20;57.40
16160;DHT22;8185;57.818;15.224;2022-07-29T12:43:20;29.50;57.00
16160;DHT22;8185;57.818;15.224;2022-07-29T12:45:49;28.90;55.80
16160;DHT22;8185;57.818;15.224;2022-07-29T12:48:17;28.30;55.50
16160;DHT22;8185;57.818;15.224;2022-07-29T12:50:56;26.20;57.70
16160;DHT22;8185;57.818;15.224;2022-07-29T12:53:24;25.60;59.60
16160;DHT22;8185;57.818;15.224;2022-07-29T12:55:55;24.80;59.70
16160;DHT22;8185;57.818;15.224;2022-07-29T12:58:33;24.20;61.50
16160;DHT22;8185;57.818;15.224;2022-07-29T13:01:09;23.70;62.60
16160;DHT22;8185;57.818;15.224;2022-07-29T13:03:49;23.40;64.90
16160;DHT22;8185;57.818;15.224;2022-07-29T13:06:31;23.10;64.70
16160;DHT22;8185;57.818;15.224;2022-07-29T13:09:04;23.00;66.20
16160;DHT22;8185;57.818;15.224;2022-07-29T13:11:35;23.20;66.10
16160;DHT22;8185;57.818;15.224;2022-07-29T13:14:03;23.30;67.50
16160;DHT22;8185;57.818;15.224;2022-07-29T13:16:31;23.30;65.20
16160;DHT22;8185;57.818;15.224;2022-07-29T13:19:09;23.50;68.50
16160;DHT22;8185;57.818;15.224;2022-07-29T13:21:38;23.80;65.80
16160;DHT22;8185;57.818;15.224;2022-07-29T13:24:07;24.50;65.30
16160;DHT22;8185;57.818;15.224;2022-07-29T13:26:39;25.00;62.50
16160;DHT22;8185;57.818;15.224;2022-07-29T13:29:07;24.50;63.50
16160;DHT22;8185;57.818;15.224;2022-07-29T13:31:35;25.70;63.00
16160;DHT22;8185;57.818;15.224;2022-07-29T13:34:02;27.10;58.50
16160;DHT22;8185;57.818;15.224;2022-07-29T13:36:29;28.10;57.90
16160;DHT22;8185;57.818;15.224;2022-07-29T13:38:57;28.90;56.20
16160;DHT22;8185;57.818;15.224;2022-07-29T13:41:24;29.30;55.00
16160;DHT22;8185;57.818;15.224;2022-07-29T13:43:53;27.40;55.80
16160;DHT22;8185;57.818;15.224;2022-07-29T13:46:20;28.30;57.60
16160;DHT22;8185;57.818;15.224;2022-07-29T13:48:47;27.60;55.40
16160;DHT22;8185;57.818;15.224;2022-07-29T13:51:14;27.20;55.80
16160;DHT22;8185;57.818;15.224;2022-07-29T13:53:42;26.40;57.70
16160;DHT22;8185;57.818;15.224;2022-07-29T13:56:09;25.60;59.70
16160;DHT22;8185;57.818;15.224;2022-07-29T13:58:36;25.00;60.50
16160;DHT22;8185;57.818;15.224;2022-07-29T14:01:05;24.50;60.70
16160;DHT22;8185;57.818;15.224;2022-07-29T14:03:32;24.20;61.80
16160;DHT22;8185;57.818;15.224;2022-07-29T14:05:59;24.20;62.90
16160;DHT22;8185;57.818;15.224;2022-07-29T14:08:26;24.10;63.00
16160;DHT22;8185;57.818;15.224;2022-07-29T14:10:54;24.00;61.10
16160;DHT22;8185;57.818;15.224;2022-07-29T14:13:21;23.80;64.30
16160;DHT22;8185;57.818;15.224;2022-07-29T14:15:48;23.80;63.90
16160;DHT22;8185;57.818;15.224;2022-07-29T14:18:17;23.80;64.40
16160;DHT22;8185;57.818;15.224;2022-07-29T14:20:44;23.80;67.60
16160;DHT22;8185;57.818;15.224;2022-07-29T14:23:11;23.70;66.30
16160;DHT22;8185;57.818;15.224;2022-07-29T14:25:39;23.50;66.30
16160;DHT22;8185;57.818;15.224;2022-07-29T14:28:06;23.50;65.60
16160;DHT22;8185;57.818;15.224;2022-07-29T14:30:33;22.70;66.40
16160;DHT22;8185;57.818;15.224;2022-07-29T14:33:01;23.40;66.00
16160;DHT22;8185;57.818;15.224;2022-07-29T14:35:30;23.30;71.70
16160;DHT22;8185;57.818;15.224;2022-07-29T14:37:57;23.20;69.80
16160;DHT22;8185;57.818;15.224;2022-07-29T14:40:24;23.40;70.80
16160;DHT22;8185;57.818;15.224;2022-07-29T14:42:52;23.70;69.70
16160;DHT22;8185;57.818;15.224;2022-07-29T14:45:19;24.00;68.30
16160;DHT22;8185;57.818;15.224;2022-07-29T14:47:47;23.80;73.40
16160;DHT22;8185;57.818;15.224;2022-07-29T14:50:16;23.80;70.00
16160;DHT22;8185;57.818;15.224;2022-07-29T14:52:45;24.00;66.90
16160;DHT22;8185;57.818;15.224;2022-07-29T14:55:12;24.00;69.20
16160;DHT22;8185;57.818;15.224;2022-07-29T14:57:40;24.20;69.50
16160;DHT22;8185;57.818;15.224;2022-07-29T15:00:08;24.40;69.00
16160;DHT22;8185;57.818;15.224;2022-07-29T15:02:37;24.60;70.60
16160;DHT22;8185;57.818;15.224;2022-07-29T15:05:05;24.70;70.20
16160;DHT22;8185;57.818;15.224;2022-07-29T15:07:32;26.80;66.70
16160;DHT22;8185;57.818;15.224;2022-07-29T15:10:01;26.60;63.30
16160;DHT22;8185;57.818;15.224;2022-07-29T15:12:30;27.50;62.20
16160;DHT22;8185;57.818;15.224;2022-07-29T15:14:57;28.10;61.60
16160;DHT22;8185;57.818;15.224;2022-07-29T15:17:25;27.60;59.40
16160;DHT22;8185;57.818;15.224;2022-07-29T15:19:52;28.40;60.80
16160;DHT22;8185;57.818;15.224;2022-07-29T15:22:20;29.30;59.10
16160;DHT22;8185;57.818;15.224;2022-07-29T15:24:47;30.60;58.10
16160;DHT22;8185;57.818;15.224;2022-07-29T15:27:16;31.30;54.00
16160;DHT22;8185;57.818;15.224;2022-07-29T15:29:43;30.10;54.70
16160;DHT22;8185;57.818;15.224;2022-07-29T15:32:11;29.10;55.00
16160;DHT22;8185;57.818;15.224;2022-07-29T15:34:38;28.10;58.50
16160;DHT22;8185;57.818;15.224;2022-07-29T15:37:06;27.80;58.00
16160;DHT22;8185;57.818;15.224;2022-07-29T15:39:33;27.30;59.00
16160;DHT22;8185;57.818;15.224;2022-07-29T15:42:00;26.80;59.50
16160;DHT22;8185;57.818;15.224;2022-07-29T15:44:30;26.40;60.30
16160;DHT22;8185;57.818;15.224;2022-07-29T15:46:57;26.30;60.30
16160;DHT22;8185;57.818;15.224;2022-07-29T15:49:32;25.60;60.40
16160;DHT22;8185;57.818;15.224;2022-07-29T15:52:02;25.40;61.60
16160;DHT22;8185;57.818;15.224;2022-07-29T15:54:32;25.10;64.80
16160;DHT22;8185;57.818;15.224;2022-07-29T15:57:00;25.10;63.80
16160;DHT22;8185;57.818;15.224;2022-07-29T15:59:29;24.90;64.00
16160;DHT22;8185;57.818;15.224;2022-07-29T16:01:57;24.80;64.40
16160;DHT22;8185;57.818;15.224;2022-07-29T16:04:24;26.50;61.10
16160;DHT22;8185;57.818;15.224;2022-07-29T16:06:52;28.50;58.40
16160;DHT22;8185;57.818;15.224;2022-07-29T16:09:19;29.60;55.20
16160;DHT22;8185;57.818;15.224;2022-07-29T16:11:47;30.70;53.70
16160;DHT22;8185;57.818;15.224;2022-07-29T16:14:16;31.60;53.60
16160;DHT22;8185;57.818;15.224;2022-07-29T16:16:45;32.50;53.80
16160;DHT22;8185;57.818;15.224;2022-07-29T16:19:12;30.90;54.00
16160;DHT22;8185;57.818;15.224;2022-07-29T16:21:39;31.10;55.50
16160;DHT22;8185;57.818;15.224;2022-07-29T16:24:07;32.30;53.70
16160;DHT22;8185;57.818;15.224;2022-07-29T16:26:35;31.90;53.10
16160;DHT22;8185;57.818;15.224;2022-07-29T16:29:03;29.90;55.60
16160;DHT22;8185;57.818;15.224;2022-07-29T16:31:30;28.20;59.80
16160;DHT22;8185;57.818;15.224;2022-07-29T16:33:59;27.40;63.30
16160;DHT22;8185;57.818;15.224;2022-07-29T16:36:27;27.10;65.80
16160;DHT22;8185;57.818;15.224;2022-07-29T16:38:55;27.70;65.70
16160;DHT22;8185;57.818;15.224;2022-07-29T16:41:22;29.20;64.70
16160;DHT22;8185;57.818;15.224;2022-07-29T16:43:49;29.40;62.70
16160;DHT22;8185;57.818;15.224;2022-07-29T16:46:16;30.30;61.90
16160;DHT22;8185;57.818;15.224;2022-07-29T16:48:44;31.00;61.30
16160;DHT22;8185;57.818;15.224;2022-07-29T16:51:13;31.40;60.50
16160;DHT22;8185;57.818;15.224;2022-07-29T16:53:40;30.70;61.40
16160;DHT22;8185;57.818;15.224;2022-07-29T16:56:10;31.30;60.50
16160;DHT22;8185;57.818;15.224;2022-07-29T16:58:37;31.60;59.70
16160;DHT22;8185;57.818;15.224;2022-07-29T17:01:04;31.60;60.20
16160;DHT22;8185;57.818;15.224;2022-07-29T17:03:32;31.40;60.50
16160;DHT22;8185;57.818;15.224;2022-07-29T17:05:59;31.30;60.70
16160;DHT22;8185;57.818;15.224;2022-07-29T17:08:28;30.90;60.80
16160;DHT22;8185;57.818;15.224;2022-07-29T17:10:55;31.20;60.40
16160;DHT22;8185;57.818;15.224;2022-07-29T17:13:23;31.00;61.10
16160;DHT22;8185;57.818;15.224;2022-07-29T17:15:50;30.70;61.40
16160;DHT22;8185;57.818;15.224;2022-07-29T17:18:17;30.70;61.00
16160;DHT22;8185;57.818;15.224;2022-07-29T17:20:44;30.20;60.80
16160;DHT22;8185;57.818;15.224;2022-07-29T17:23:12;30.50;60.80
16160;DHT22;8185;57.818;15.224;2022-07-29T17:25:43;30.40;61.30
16160;DHT22;8185;57.818;15.224;2022-07-29T17:28:10;30.30;61.30
16160;DHT22;8185;57.818;15.224;2022-07-29T17:30:37;30.20;61.90
16160;DHT22;8185;57.818;15.224;2022-07-29T17:33:05;29.80;62.60
16160;DHT22;8185;57.818;15.224;2022-07-29T17:35:32;30.20;62.10
16160;DHT22;8185;57.818;15.224;2022-07-29T17:38:17;29.90;62.50
16160;DHT22;8185;57.818;15.224;2022-07-29T17:40:45;28.70;63.80
16160;DHT22;8185;57.818;15.224;2022-07-29T17:43:12;29.00;65.00
16160;DHT22;8185;57.818;15.224;2022-07-29T17:45:40;29.20;63.70
16160;DHT22;8185;57.818;15.224;2022-07-29T17:48:07;29.30;62.50
16160;DHT22;8185;57.818;15.224;2022-07-29T17:50:34;29.40;62.60
16160;DHT22;8185;57.818;15.224;2022-07-29T17:53:02;29.40;63.20
16160;DHT22;8185;57.818;15.224;2022-07-29T17:55:29;29.40;63.20
16160;DHT22;8185;57.818;15.224;2022-07-29T17:57:57;29.20;63.60
16160;DHT22;8185;57.818;15.224;2022-07-29T18:00:25;29.30;64.00
16160;DHT22;8185;57.818;15.224;2022-07-29T18:02:53;28.60;63.90
16160;DHT22;8185;57.818;15.224;2022-07-29T18:05:20;26.50;66.50
16160;DHT22;8185;57.818;15.224;2022-07-29T18:07:48;25.40;68.60
16160;DHT22;8185;57.818;15.224;2022-07-29T18:10:15;24.20;74.10
16160;DHT22;8185;57.818;15.224;2022-07-29T18:12:42;23.80;75.00
16160;DHT22;8185;57.818;15.224;2022-07-29T18:15:11;24.40;73.40
16160;DHT22;8185;57.818;15.224;2022-07-29T18:17:38;25.40;73.30
16160;DHT22;8185;57.818;15.224;2022-07-29T18:20:07;25.90;72.10
16160;DHT22;8185;57.818;15.224;2022-07-29T18:22:34;26.40;71.10
16160;DHT22;8185;57.818;15.224;2022-07-29T18:25:01;26.60;70.20
16160;DHT22;8185;57.818;15.224;2022-07-29T18:27:29;26.60;69.80
16160;DHT22;8185;57.818;15.224;2022-07-29T18:29:56;26.40;70.70
16160;DHT22;8185;57.818;15.224;2022-07-29T18:32:25;26.30;70.40
16160;DHT22;8185;57.818;15.224;2022-07-29T18:34:53;26.10;70.40
16160;DHT22;8185;57.818;15.224;2022-07-29T18:37:20;25.80;71.20
16160;DHT22;8185;57.818;15.224;2022-07-29T18:39:47;25.60;71.30
16160;DHT22;8185;57.818;15.224;2022-07-29T18:42:14;25.30;71.80
16160;DHT22;8185;57.818;15.224;2022-07-29T18:44:42;25.10;72.50
16160;DHT22;8185;57.818;15.224;2022-07-29T18:47:09;24.00;73.50
16160;DHT22;8185;57.818;15.224;2022-07-29T18:49:38;22.90;76.90
16160;DHT22;8185;57.818;15.224;2022-07-29T18:52:05;22.20;79.70
16160;DHT22;8185;57.818;15.224;2022-07-29T18:54:32;21.60;81.50
16160;DHT22;8185;57.818;15.224;2022-07-29T18:57:00;21.00;82.90
16160;DHT22;8185;57.818;15.224;2022-07-29T18:59:27;20.70;85.50
16160;DHT22;8185;57.818;15.224;2022-07-29T19:01:55;20.30;86.30
16160;DHT22;8185;57.818;15.224;2022-07-29T19:04:22;20.00;87.30
16160;DHT22;8185;57.818;15.224;2022-07-29T19:06:51;19.70;88.30
16160;DHT22;8185;57.818;15.224;2022-07-29T19:09:19;19.40;89.50
16160;DHT22;8185;57.818;15.224;2022-07-29T19:11:46;19.20;90.40
16160;DHT22;8185;57.818;15.224;2022-07-29T19:14:14;18.90;91.10
16160;DHT22;8185;57.818;15.224;2022-07-29T19:16:41;18.70;91.30
16160;DHT22;8185;57.818;15.224;2022-07-29T19:19:08;18.60;91.80
16160;DHT22;8185;57.818;15.224;2022-07-29T19:21:36;18.40;91.70
16160;DHT22;8185;57.818;15.224;2022-07-29T19:24:05;18.30;92.10
16160;DHT22;8185;57.818;15.224;2022-07-29T19:26:33;18.20;92.20
16160;DHT22;8185;57.818;15.224;2022-07-29T19:29:03;18.00;92.80
16160;DHT22;8185;57.818;15.224;2022-07-29T19:33:56;17.80;93.30
16160;DHT22;8185;57.818;15.224;2022-07-29T19:36:23;17.60;93.70
16160;DHT22;8185;57.818;15.224;2022-07-29T19:38:52;17.50;94.20
16160;DHT22;8185;57.818;15.224;2022-07-29T19:41:21;17.30;94.70
16160;DHT22;8185;57.818;15.224;2022-07-29T19:43:49;17.20;94.90
16160;DHT22;8185;57.818;15.224;2022-07-29T19:46:21;17.10;95.20
16160;DHT22;8185;57.818;15.224;2022-07-29T19:48:54;17.00;95.40
16160;DHT22;8185;57.818;15.224;2022-07-29T19:51:22;16.80;95.70
16160;DHT22;8185;57.818;15.224;2022-07-29T19:53:50;16.70;96.00
16160;DHT22;8185;57.818;15.224;2022-07-29T19:56:18;16.60;96.60
16160;DHT22;8185;57.818;15.224;2022-07-29T19:58:47;16.50;96.90
16160;DHT22;8185;57.818;15.224;2022-07-29T20:01:15;16.30;97.20
16160;DHT22;8185;57.818;15.224;2022-07-29T20:06:11;16.10;98.00
16160;DHT22;8185;57.818;15.224;2022-07-29T20:08:39;16.00;98.40
16160;DHT22;8185;57.818;15.224;2022-07-29T20:11:06;15.90;98.40
16160;DHT22;8185;57.818;15.224;2022-07-29T20:13:34;15.90;98.60
16160;DHT22;8185;57.818;15.224;2022-07-29T20:16:03;15.80;98.80
16160;DHT22;8185;57.818;15.224;2022-07-29T20:18:33;15.70;99.00
16160;DHT22;8185;57.818;15.224;2022-07-29T20:21:00;15.60;99.20
16160;DHT22;8185;57.818;15.224;2022-07-29T20:25:56;15.50;99.50
16160;DHT22;8185;57.818;15.224;2022-07-29T20:28:24;15.40;99.70
16160;DHT22;8185;57.818;15.224;2022-07-29T20:30:52;15.30;99.80
16160;DHT22;8185;57.818;15.224;2022-07-29T20:33:20;15.30;99.90
16160;DHT22;8185;57.818;15.224;2022-07-29T20:35:48;15.20;99.90
16160;DHT22;8185;57.818;15.224;2022-07-29T20:38:15;15.20;99.90
16160;DHT22;8185;57.818;15.224;2022-07-29T20:40:42;15.10;99.90
16160;DHT22;8185;57.818;15.224;2022-07-29T20:45:38;15.10;99.90
16160;DHT22;8185;57.818;15.224;2022-07-29T20:50:34;15.00;99.90
16160;DHT22;8185;57.818;15.224;2022-07-29T20:55:27;14.90;99.90
16160;DHT22;8185;57.818;15.224;2022-07-29T20:57:54;14.90;99.90
16160;DHT22;8185;57.818;15.224;2022-07-29T21:00:22;14.80;99.90
16160;DHT22;8185;57.818;15.224;2022-07-29T21:02:49;14.80;99.90
16160;DHT22;8185;57.818;15.224;2022-07-29T21:05:17;14.80;99.90
16160;DHT22;8185;57.818;15.224;2022-07-29T21:07:45;14.70;99.90
16160;DHT22;8185;57.818;15.224;2022-07-29T21:10:14;14.60;99.90
16160;DHT22;8185;57.818;15.224;2022-07-29T21:12:44;14.40;99.90
16160;DHT22;8185;57.818;15.224;2022-07-29T21:15:12;14.20;99.90
16160;DHT22;8185;57.818;15.224;2022-07-29T21:17:41;14.00;99.90
16160;DHT22;8185;57.818;15.224;2022-07-29T21:20:13;13.80;99.90
16160;DHT22;8185;57.818;15.224;2022-07-29T21:22:40;13.70;99.90
16160;DHT22;8185;57.818;15.224;2022-07-29T21:25:10;13.70;99.90
16160;DHT22;8185;57.818;15.224;2022-07-29T21:27:37;13.70;99.90
16160;DHT22;8185;57.818;15.224;2022-07-29T21:30:22;13.70;99.90
16160;DHT22;8185;57.818;15.224;2022-07-29T21:32:49;13.70;99.90
16160;DHT22;8185;57.818;15.224;2022-07-29T21:35:16;13.70;99.90
16160;DHT22;8185;57.818;15.224;2022-07-29T21:37:44;13.80;99.90
16160;DHT22;8185;57.818;15.224;2022-07-29T21:40:12;13.90;99.90
16160;DHT22;8185;57.818;15.224;2022-07-29T21:42:40;13.90;99.90
16160;DHT22;8185;57.818;15.224;2022-07-29T21:45:08;14.00;99.90
16160;DHT22;8185;57.818;15.224;2022-07-29T21:47:36;14.00;99.90
16160;DHT22;8185;57.818;15.224;2022-07-29T21:52:36;14.00;99.90
16160;DHT22;8185;57.818;15.224;2022-07-29T21:55:04;14.00;99.90
16160;DHT22;8185;57.818;15.224;2022-07-29T21:57:33;13.90;99.90
16160;DHT22;8185;57.818;15.224;2022-07-29T22:00:00;13.90;99.90
16160;DHT22;8185;57.818;15.224;2022-07-29T22:02:27;13.90;99.90
16160;DHT22;8185;57.818;15.224;2022-07-29T22:04:55;13.80;99.90
16160;DHT22;8185;57.818;15.224;2022-07-29T22:07:22;13.80;99.90
16160;DHT22;8185;57.818;15.224;2022-07-29T22:09:49;13.70;99.90
16160;DHT22;8185;57.818;15.224;2022-07-29T22:12:16;13.70;99.90
16160;DHT22;8185;57.818;15.224;2022-07-29T22:14:45;13.60;99.90
16160;DHT22;8185;57.818;15.224;2022-07-29T22:17:12;13.60;99.90
16160;DHT22;8185;57.818;15.224;2022-07-29T22:19:40;13.60;99.90
16160;DHT22;8185;57.818;15.224;2022-07-29T22:22:07;13.50;99.90
16160;DHT22;8185;57.818;15.224;2022-07-29T22:24:34;13.50;99.90
16160;DHT22;8185;57.818;15.224;2022-07-29T22:27:02;13.50;99.90